createdAt,value
2023-03-22T00:00:04.312Z,0.00
2023-03-22T00:01:04.288Z,0.00
2023-03-22T00:02:04.296Z,0.00
2023-03-22T00:03:04.379Z,0.00
2023-03-22T00:04:04.261Z,0.00
2023-03-22T00:05:04.241Z,0.00
2023-03-22T00:06:04.233Z,0.00
2023-03-22T00:07:04.210Z,0.00
2023-03-22T00:08:04.199Z,0.00
2023-03-22T00:09:04.184Z,0.00
2023-03-22T00:10:04.196Z,0.00
2023-03-22T00:11:04.170Z,0.00
2023-03-22T00:12:04.161Z,0.00
2023-03-22T00:13:04.167Z,0.00
2023-03-22T00:14:04.156Z,0.00
2023-03-22T00:15:04.143Z,0.00
2023-03-22T00:16:04.136Z,0.00
2023-03-22T00:17:04.104Z,0.00
2023-03-22T00:18:04.090Z,0.00
2023-03-22T00:19:04.109Z,0.00
2023-03-22T00:20:04.073Z,0.00
2023-03-22T00:21:04.045Z,0.00
2023-03-22T00:22:04.038Z,0.00
2023-03-22T00:23:04.019Z,0.00
2023-03-22T00:24:04.025Z,0.00
2023-03-22T00:25:04.007Z,0.00
2023-03-22T00:26:03.995Z,0.00
2023-03-22T00:27:03.974Z,0.00
2023-03-22T00:28:03.971Z,0.00
2023-03-22T00:29:03.966Z,0.00
2023-03-22T00:30:03.947Z,0.00
2023-03-22T00:31:03.963Z,0.00
2023-03-22T00:32:03.930Z,0.00
2023-03-22T00:33:03.911Z,0.00
2023-03-22T00:34:03.933Z,0.00
2023-03-22T00:35:03.912Z,0.00
2023-03-22T00:36:03.903Z,0.00
2023-03-22T00:37:03.976Z,0.00
2023-03-22T00:38:03.872Z,0.00
2023-03-22T00:39:03.854Z,0.00
2023-03-22T00:40:03.850Z,0.00
2023-03-22T00:41:03.828Z,0.00
2023-03-22T00:42:03.820Z,0.00
2023-03-22T00:43:11.203Z,0.00
2023-03-22T00:44:03.840Z,0.00
2023-03-22T00:45:03.810Z,0.00
2023-03-22T00:46:03.811Z,0.00
2023-03-22T00:47:03.782Z,0.00
2023-03-22T00:48:03.778Z,0.00
2023-03-22T00:49:03.762Z,0.00
2023-03-22T00:50:03.726Z,0.00
2023-03-22T00:51:03.757Z,0.00
2023-03-22T00:52:03.722Z,0.00
2023-03-22T00:53:03.689Z,0.00
2023-03-22T00:54:03.692Z,0.00
2023-03-22T00:55:03.670Z,0.00
2023-03-22T00:56:03.663Z,0.00
2023-03-22T00:57:03.649Z,0.00
2023-03-22T00:58:03.643Z,0.00
2023-03-22T00:59:03.638Z,0.00
2023-03-22T01:00:03.613Z,0.00
2023-03-22T01:01:03.691Z,0.00
2023-03-22T01:02:03.606Z,0.00
2023-03-22T01:03:03.590Z,0.00
2023-03-22T01:04:03.595Z,0.00
2023-03-22T01:05:03.566Z,0.00
2023-03-22T01:06:03.569Z,0.00
2023-03-22T01:07:03.596Z,0.00
2023-03-22T01:08:03.540Z,0.00
2023-03-22T01:09:03.525Z,0.00
2023-03-22T01:10:03.504Z,0.00
2023-03-22T01:11:03.491Z,0.00
2023-03-22T01:12:03.489Z,0.00
2023-03-22T01:13:03.515Z,0.00
2023-03-22T01:14:03.478Z,0.00
2023-03-22T01:15:03.438Z,0.00
2023-03-22T01:16:03.531Z,0.00
2023-03-22T01:17:03.423Z,0.00
2023-03-22T01:18:03.411Z,0.00
2023-03-22T01:19:03.449Z,0.00
2023-03-22T01:20:03.391Z,0.00
2023-03-22T01:21:03.389Z,0.00
2023-03-22T01:22:03.362Z,0.00
2023-03-22T01:23:03.382Z,0.00
2023-03-22T01:24:03.343Z,0.00
2023-03-22T01:25:03.347Z,0.00
2023-03-22T01:26:03.329Z,0.00
2023-03-22T01:27:03.324Z,0.00
2023-03-22T01:28:03.292Z,0.00
2023-03-22T01:29:03.289Z,0.00
2023-03-22T01:30:03.280Z,0.00
2023-03-22T01:31:03.315Z,0.00
2023-03-22T01:32:03.282Z,0.00
2023-03-22T01:33:03.276Z,0.00
2023-03-22T01:34:03.248Z,0.00
2023-03-22T01:35:03.214Z,0.00
2023-03-22T01:36:03.242Z,0.00
2023-03-22T01:37:03.192Z,0.00
2023-03-22T01:38:03.200Z,0.00
2023-03-22T01:39:03.193Z,0.00
2023-03-22T01:40:03.171Z,0.00
2023-03-22T01:41:03.180Z,0.00
2023-03-22T01:42:03.177Z,0.00
2023-03-22T01:43:03.162Z,0.00
2023-03-22T01:44:03.129Z,0.00
2023-03-22T01:45:03.107Z,0.00
2023-03-22T01:46:03.144Z,0.00
2023-03-22T01:47:03.100Z,0.00
2023-03-22T01:48:03.154Z,0.00
2023-03-22T01:49:03.090Z,0.00
2023-03-22T01:50:03.086Z,0.00
2023-03-22T01:51:03.076Z,0.00
2023-03-22T01:52:03.036Z,0.00
2023-03-22T01:53:03.020Z,0.00
2023-03-22T01:54:03.020Z,0.00
2023-03-22T01:55:03.020Z,0.00
2023-03-22T01:56:03.006Z,0.00
2023-03-22T01:57:02.980Z,0.00
2023-03-22T01:58:02.982Z,0.00
2023-03-22T01:59:02.948Z,0.00
2023-03-22T02:00:02.962Z,0.00
2023-03-22T02:01:03.094Z,0.00
2023-03-22T02:02:02.947Z,0.00
2023-03-22T02:03:03.027Z,0.00
2023-03-22T02:04:02.916Z,0.00
2023-03-22T02:05:02.902Z,0.00
2023-03-22T02:06:02.900Z,0.00
2023-03-22T02:07:02.870Z,0.00
2023-03-22T02:08:02.852Z,0.00
2023-03-22T02:09:02.840Z,0.00
2023-03-22T02:10:02.825Z,0.00
2023-03-22T02:11:02.868Z,0.00
2023-03-22T02:12:02.824Z,0.00
2023-03-22T02:13:02.793Z,0.00
2023-03-22T02:14:02.788Z,0.00
2023-03-22T02:15:02.783Z,0.00
2023-03-22T02:16:02.804Z,0.00
2023-03-22T02:17:02.766Z,0.00
2023-03-22T02:18:02.741Z,0.00
2023-03-22T02:19:02.725Z,0.00
2023-03-22T02:20:02.710Z,0.00
2023-03-22T02:21:02.727Z,0.00
2023-03-22T02:22:02.713Z,0.00
2023-03-22T02:23:02.688Z,0.00
2023-03-22T02:24:02.700Z,0.00
2023-03-22T02:25:02.663Z,0.00
2023-03-22T02:26:02.669Z,0.00
2023-03-22T02:27:02.666Z,0.00
2023-03-22T02:28:02.633Z,0.00
2023-03-22T02:29:02.644Z,0.00
2023-03-22T02:30:02.611Z,0.00
2023-03-22T02:31:02.625Z,0.00
2023-03-22T02:32:02.582Z,0.00
2023-03-22T02:33:02.602Z,0.00
2023-03-22T02:34:02.587Z,0.00
2023-03-22T02:35:02.571Z,0.00
2023-03-22T02:36:02.548Z,0.00
2023-03-22T02:37:02.553Z,0.00
2023-03-22T02:38:02.524Z,0.00
2023-03-22T02:39:02.507Z,0.00
2023-03-22T02:40:02.491Z,0.00
2023-03-22T02:41:02.502Z,0.00
2023-03-22T02:42:02.478Z,0.00
2023-03-22T02:43:02.496Z,0.00
2023-03-22T02:44:09.983Z,0.00
2023-03-22T02:45:02.457Z,0.00
2023-03-22T02:46:02.437Z,0.00
2023-03-22T02:47:02.413Z,0.00
2023-03-22T02:48:02.481Z,0.00
2023-03-22T02:49:02.392Z,0.00
2023-03-22T02:50:02.397Z,0.00
2023-03-22T02:51:02.384Z,0.00
2023-03-22T02:52:02.355Z,0.00
2023-03-22T02:53:02.362Z,0.00
2023-03-22T02:54:02.334Z,0.00
2023-03-22T02:55:02.338Z,0.00
2023-03-22T02:56:02.320Z,0.00
2023-03-22T02:57:02.315Z,0.00
2023-03-22T02:58:02.324Z,0.00
2023-03-22T02:59:02.350Z,0.00
2023-03-22T03:00:02.324Z,0.00
2023-03-22T03:01:02.319Z,0.00
2023-03-22T03:02:02.288Z,0.00
2023-03-22T03:03:02.235Z,0.00
2023-03-22T03:04:02.222Z,0.00
2023-03-22T03:05:02.236Z,0.00
2023-03-22T03:06:02.212Z,0.00
2023-03-22T03:07:02.194Z,0.00
2023-03-22T03:08:02.182Z,0.00
2023-03-22T03:09:02.170Z,0.00
2023-03-22T03:10:02.181Z,0.00
2023-03-22T03:11:02.147Z,0.00
2023-03-22T03:12:02.136Z,0.00
2023-03-22T03:13:02.144Z,0.00
2023-03-22T03:14:02.126Z,0.00
2023-03-22T03:15:02.156Z,0.00
2023-03-22T03:16:02.139Z,0.00
2023-03-22T03:17:02.081Z,0.00
2023-03-22T03:18:02.086Z,0.00
2023-03-22T03:19:02.081Z,0.00
2023-03-22T03:20:02.047Z,0.00
2023-03-22T03:21:02.040Z,0.00
2023-03-22T03:22:02.027Z,0.00
2023-03-22T03:23:02.034Z,0.00
2023-03-22T03:24:02.008Z,0.00
2023-03-22T03:25:01.994Z,0.00
2023-03-22T03:26:01.980Z,0.00
2023-03-22T03:27:01.970Z,0.00
2023-03-22T03:28:01.955Z,0.00
2023-03-22T03:29:01.961Z,0.00
2023-03-22T03:30:01.945Z,0.00
2023-03-22T03:31:01.944Z,0.00
2023-03-22T03:32:01.916Z,0.00
2023-03-22T03:33:01.904Z,0.00
2023-03-22T03:34:01.914Z,0.00
2023-03-22T03:35:01.895Z,0.00
2023-03-22T03:36:01.884Z,0.00
2023-03-22T03:37:01.878Z,0.00
2023-03-22T03:38:01.846Z,0.00
2023-03-22T03:39:01.842Z,0.00
2023-03-22T03:40:01.833Z,0.00
2023-03-22T03:41:01.822Z,0.00
2023-03-22T03:42:01.814Z,0.00
2023-03-22T03:43:01.806Z,0.00
2023-03-22T03:44:01.802Z,0.00
2023-03-22T03:45:01.782Z,0.00
2023-03-22T03:46:01.834Z,0.00
2023-03-22T03:47:01.770Z,0.00
2023-03-22T03:48:01.827Z,0.00
2023-03-22T03:49:01.739Z,0.00
2023-03-22T03:50:01.734Z,0.00
2023-03-22T03:51:01.702Z,0.00
2023-03-22T03:52:01.703Z,0.00
2023-03-22T03:53:01.704Z,0.00
2023-03-22T03:54:01.668Z,0.00
2023-03-22T03:55:01.668Z,0.00
2023-03-22T03:56:01.642Z,0.00
2023-03-22T03:57:03.837Z,0.00
2023-03-22T03:58:02.225Z,0.00
2023-03-22T03:59:01.632Z,0.00
2023-03-22T04:00:01.636Z,0.00
2023-03-22T04:01:01.588Z,0.00
2023-03-22T04:02:01.638Z,0.00
2023-03-22T04:03:01.614Z,0.00
2023-03-22T04:04:01.600Z,0.00
2023-03-22T04:05:01.579Z,0.00
2023-03-22T04:06:01.536Z,0.00
2023-03-22T04:07:01.533Z,0.00
2023-03-22T04:08:01.508Z,0.00
2023-03-22T04:09:01.504Z,0.00
2023-03-22T04:10:01.502Z,0.00
2023-03-22T04:11:01.482Z,0.00
2023-03-22T04:12:01.461Z,0.00
2023-03-22T04:13:01.455Z,0.00
2023-03-22T04:14:01.467Z,0.00
2023-03-22T04:15:01.450Z,0.00
2023-03-22T04:16:01.418Z,0.00
2023-03-22T04:17:01.479Z,0.00
2023-03-22T04:18:01.397Z,0.00
2023-03-22T04:19:01.420Z,0.00
2023-03-22T04:20:01.393Z,0.00
2023-03-22T04:21:01.433Z,0.00
2023-03-22T04:22:01.352Z,0.00
2023-03-22T04:23:01.362Z,0.00
2023-03-22T04:24:01.338Z,0.00
2023-03-22T04:25:01.320Z,0.00
2023-03-22T04:26:01.306Z,0.00
2023-03-22T04:27:01.309Z,0.00
2023-03-22T04:28:01.315Z,0.00
2023-03-22T04:29:01.277Z,0.00
2023-03-22T04:30:01.272Z,0.00
2023-03-22T04:31:01.280Z,0.00
2023-03-22T04:32:01.255Z,0.00
2023-03-22T04:33:01.259Z,0.00
2023-03-22T04:34:01.223Z,0.00
2023-03-22T04:35:01.256Z,0.00
2023-03-22T04:36:04.082Z,0.00
2023-03-22T04:37:01.184Z,0.00
2023-03-22T04:38:01.208Z,0.00
2023-03-22T04:39:01.178Z,0.00
2023-03-22T04:40:01.170Z,0.00
2023-03-22T04:41:01.187Z,0.00
2023-03-22T04:42:01.139Z,0.00
2023-03-22T04:43:01.150Z,0.00
2023-03-22T04:44:01.105Z,0.00
2023-03-22T04:45:08.132Z,0.00
2023-03-22T04:46:01.145Z,0.00
2023-03-22T04:47:01.073Z,0.00
2023-03-22T04:48:01.127Z,0.00
2023-03-22T04:49:01.052Z,0.00
2023-03-22T04:50:01.055Z,0.00
2023-03-22T04:51:01.071Z,0.00
2023-03-22T04:52:01.031Z,0.00
2023-03-22T04:53:01.023Z,0.00
2023-03-22T04:54:01.003Z,0.00
2023-03-22T04:55:00.999Z,0.00
2023-03-22T04:56:00.986Z,0.00
2023-03-22T04:57:00.973Z,0.00
2023-03-22T04:58:00.973Z,0.00
2023-03-22T04:59:00.942Z,0.00
2023-03-22T05:00:00.947Z,0.00
2023-03-22T05:01:00.918Z,0.00
2023-03-22T05:02:01.017Z,0.00
2023-03-22T05:03:00.967Z,0.00
2023-03-22T05:04:00.891Z,0.00
2023-03-22T05:05:00.875Z,0.00
2023-03-22T05:06:00.864Z,0.00
2023-03-22T05:07:00.901Z,0.00
2023-03-22T05:08:00.850Z,0.00
2023-03-22T05:09:00.838Z,0.00
2023-03-22T05:10:00.818Z,0.00
2023-03-22T05:11:00.807Z,0.00
2023-03-22T05:12:00.815Z,0.00
2023-03-22T05:13:00.785Z,0.00
2023-03-22T05:14:00.769Z,0.00
2023-03-22T05:15:00.787Z,0.00
2023-03-22T05:16:00.808Z,0.00
2023-03-22T05:17:00.754Z,0.00
2023-03-22T05:18:00.724Z,0.00
2023-03-22T05:19:00.733Z,0.00
2023-03-22T05:20:00.749Z,0.00
2023-03-22T05:21:00.721Z,5.62
2023-03-22T05:22:00.680Z,5.62
2023-03-22T05:23:00.785Z,5.62
2023-03-22T05:24:00.676Z,5.62
2023-03-22T05:25:00.665Z,5.62
2023-03-22T05:26:00.656Z,11.25
2023-03-22T05:27:01.343Z,11.25
2023-03-22T05:28:00.610Z,11.25
2023-03-22T05:29:00.613Z,11.25
2023-03-22T05:30:00.594Z,16.88
2023-03-22T05:31:00.612Z,16.88
2023-03-22T05:32:00.573Z,16.88
2023-03-22T05:33:00.580Z,16.88
2023-03-22T05:34:00.563Z,22.50
2023-03-22T05:35:00.548Z,22.50
2023-03-22T05:36:00.541Z,28.12
2023-03-22T05:37:00.533Z,28.12
2023-03-22T05:38:00.508Z,33.75
2023-03-22T05:39:00.524Z,33.75
2023-03-22T05:40:00.489Z,33.75
2023-03-22T05:41:00.493Z,39.38
2023-03-22T05:42:00.472Z,45.00
2023-03-22T05:43:00.462Z,45.00
2023-03-22T05:44:00.446Z,50.62
2023-03-22T05:45:00.457Z,50.62
2023-03-22T05:46:00.419Z,56.25
2023-03-22T05:47:00.515Z,56.25
2023-03-22T05:48:00.447Z,56.25
2023-03-22T05:49:00.388Z,61.88
2023-03-22T05:50:00.388Z,61.88
2023-03-22T05:51:00.399Z,61.88
2023-03-22T05:52:00.398Z,67.50
2023-03-22T05:53:00.345Z,73.12
2023-03-22T05:54:00.356Z,78.75
2023-03-22T05:55:00.346Z,84.38
2023-03-22T05:56:00.325Z,90.00
2023-03-22T05:57:00.315Z,90.00
2023-03-22T05:58:00.313Z,95.62
2023-03-22T05:59:00.285Z,101.25
2023-03-22T06:00:00.269Z,112.50
2023-03-22T06:01:00.270Z,118.12
2023-03-22T06:02:00.272Z,123.75
2023-03-22T06:03:00.335Z,135.00
2023-03-22T06:04:00.238Z,168.75
2023-03-22T06:05:00.222Z,258.75
2023-03-22T06:06:00.208Z,303.75
2023-03-22T06:07:00.201Z,331.88
2023-03-22T06:08:00.190Z,360.00
2023-03-22T06:09:10.645Z,382.50
2023-03-22T06:10:00.175Z,405.00
2023-03-22T06:11:00.172Z,444.38
2023-03-22T06:12:00.150Z,450.00
2023-03-22T06:13:00.211Z,444.38
2023-03-22T06:14:00.125Z,455.62
2023-03-22T06:15:00.162Z,466.88
2023-03-22T06:16:00.128Z,472.50
2023-03-22T06:17:00.102Z,517.50
2023-03-22T06:18:00.087Z,551.25
2023-03-22T06:19:00.064Z,573.75
2023-03-22T06:20:00.056Z,596.25
2023-03-22T06:21:00.042Z,618.75
2023-03-22T06:22:00.033Z,669.38
2023-03-22T06:23:00.027Z,691.88
2023-03-22T06:24:00.045Z,703.12
2023-03-22T06:24:59.991Z,680.62
2023-03-22T06:26:00.044Z,483.75
2023-03-22T06:26:59.990Z,388.12
2023-03-22T06:27:59.974Z,247.50
2023-03-22T06:29:00.021Z,258.75
2023-03-22T06:29:59.938Z,365.62
2023-03-22T06:30:59.990Z,388.12
2023-03-22T06:31:59.920Z,500.62
2023-03-22T06:32:59.916Z,433.12
2023-03-22T06:33:59.906Z,360.00
2023-03-22T06:35:01.226Z,523.12
2023-03-22T06:35:59.877Z,540.00
2023-03-22T06:36:59.852Z,388.12
2023-03-22T06:37:59.858Z,691.88
2023-03-22T06:38:59.831Z,731.25
2023-03-22T06:39:59.830Z,427.50
2023-03-22T06:41:01.157Z,613.12
2023-03-22T06:41:59.812Z,568.12
2023-03-22T06:43:02.927Z,455.62
2023-03-22T06:43:59.823Z,309.38
2023-03-22T06:44:59.763Z,618.75
2023-03-22T06:46:07.688Z,354.38
2023-03-22T06:46:59.741Z,337.50
2023-03-22T06:47:59.760Z,275.62
2023-03-22T06:48:59.774Z,275.62
2023-03-22T06:49:59.710Z,247.50
2023-03-22T06:50:59.734Z,258.75
2023-03-22T06:51:59.734Z,241.88
2023-03-22T06:52:59.688Z,236.25
2023-03-22T06:53:59.669Z,247.50
2023-03-22T06:54:59.687Z,253.12
2023-03-22T06:55:59.673Z,253.12
2023-03-22T06:56:59.633Z,270.00
2023-03-22T06:57:59.631Z,365.62
2023-03-22T06:58:59.633Z,354.38
2023-03-22T06:59:59.640Z,281.25
2023-03-22T07:00:59.676Z,247.50
2023-03-22T07:01:59.574Z,236.25
2023-03-22T07:02:59.582Z,236.25
2023-03-22T07:03:59.663Z,236.25
2023-03-22T07:04:59.555Z,241.88
2023-03-22T07:05:59.561Z,230.62
2023-03-22T07:06:59.557Z,236.25
2023-03-22T07:07:59.557Z,241.88
2023-03-22T07:08:59.551Z,241.88
2023-03-22T07:09:59.551Z,236.25
2023-03-22T07:10:59.592Z,247.50
2023-03-22T07:11:59.491Z,270.00
2023-03-22T07:12:59.476Z,292.50
2023-03-22T07:13:59.479Z,286.88
2023-03-22T07:14:59.523Z,315.00
2023-03-22T07:16:01.370Z,331.88
2023-03-22T07:17:00.463Z,393.75
2023-03-22T07:17:59.426Z,421.88
2023-03-22T07:18:59.450Z,393.75
2023-03-22T07:19:59.429Z,613.12
2023-03-22T07:20:59.463Z,601.88
2023-03-22T07:21:59.372Z,601.88
2023-03-22T07:22:59.446Z,630.00
2023-03-22T07:23:59.368Z,523.12
2023-03-22T07:25:01.592Z,478.12
2023-03-22T07:25:59.511Z,663.75
2023-03-22T07:26:59.402Z,641.25
2023-03-22T07:27:59.361Z,669.38
2023-03-22T07:28:59.302Z,506.25
2023-03-22T07:29:59.299Z,416.25
2023-03-22T07:30:59.294Z,309.38
2023-03-22T07:31:59.618Z,258.75
2023-03-22T07:32:59.324Z,258.75
2023-03-22T07:33:59.252Z,270.00
2023-03-22T07:34:59.250Z,286.88
2023-03-22T07:35:59.302Z,303.75
2023-03-22T07:36:59.572Z,303.75
2023-03-22T07:38:00.194Z,253.12
2023-03-22T07:38:59.193Z,247.50
2023-03-22T07:39:59.177Z,241.88
2023-03-22T07:40:59.196Z,258.75
2023-03-22T07:41:59.139Z,270.00
2023-03-22T07:42:59.221Z,264.38
2023-03-22T07:44:11.435Z,247.50
2023-03-22T07:45:00.229Z,236.25
2023-03-22T07:45:59.206Z,225.00
2023-03-22T07:46:59.249Z,213.75
2023-03-22T07:47:59.490Z,202.50
2023-03-22T07:48:59.195Z,196.88
2023-03-22T07:49:59.101Z,202.50
2023-03-22T07:50:59.109Z,208.12
2023-03-22T07:51:59.040Z,213.75
2023-03-22T07:52:59.031Z,213.75
2023-03-22T07:53:59.032Z,219.38
2023-03-22T07:54:59.000Z,219.38
2023-03-22T07:55:59.068Z,213.75
2023-03-22T07:56:59.033Z,213.75
2023-03-22T07:57:59.012Z,208.12
2023-03-22T07:58:59.101Z,202.50
2023-03-22T07:59:58.959Z,219.38
2023-03-22T08:00:59.013Z,236.25
2023-03-22T08:01:58.948Z,247.50
2023-03-22T08:02:59.037Z,258.75
2023-03-22T08:03:58.962Z,281.25
2023-03-22T08:04:58.935Z,270.00
2023-03-22T08:05:58.948Z,264.38
2023-03-22T08:06:58.874Z,241.88
2023-03-22T08:07:58.995Z,219.38
2023-03-22T08:08:58.850Z,258.75
2023-03-22T08:09:59.315Z,298.12
2023-03-22T08:10:58.864Z,360.00
2023-03-22T08:11:58.863Z,354.38
2023-03-22T08:12:58.808Z,331.88
2023-03-22T08:13:58.812Z,365.62
2023-03-22T08:14:58.786Z,410.62
2023-03-22T08:15:58.833Z,641.25
2023-03-22T08:16:58.791Z,607.50
2023-03-22T08:17:58.849Z,472.50
2023-03-22T08:18:58.803Z,534.38
2023-03-22T08:19:58.748Z,495.00
2023-03-22T08:20:58.913Z,579.38
2023-03-22T08:21:58.702Z,680.62
2023-03-22T08:22:58.678Z,691.88
2023-03-22T08:23:58.744Z,399.38
2023-03-22T08:24:58.742Z,821.25
2023-03-22T08:25:58.693Z,405.00
2023-03-22T08:26:58.746Z,517.50
2023-03-22T08:27:58.635Z,1018.12
2023-03-22T08:28:58.609Z,444.38
2023-03-22T08:29:58.779Z,405.00
2023-03-22T08:30:58.643Z,354.38
2023-03-22T08:31:58.711Z,393.75
2023-03-22T08:32:58.566Z,523.12
2023-03-22T08:33:58.593Z,551.25
2023-03-22T08:34:58.624Z,410.62
2023-03-22T08:35:58.652Z,405.00
2023-03-22T08:36:58.551Z,517.50
2023-03-22T08:37:58.559Z,1248.75
2023-03-22T08:38:58.531Z,2064.38
2023-03-22T08:39:58.514Z,2154.38
2023-03-22T08:40:58.499Z,635.62
2023-03-22T08:41:58.472Z,815.62
2023-03-22T08:42:58.504Z,860.62
2023-03-22T08:43:58.446Z,2463.75
2023-03-22T08:44:58.449Z,888.75
2023-03-22T08:45:58.514Z,1980.00
2023-03-22T08:47:06.139Z,905.62
2023-03-22T08:47:58.564Z,1552.50
2023-03-22T08:48:58.809Z,1361.25
2023-03-22T08:49:58.389Z,1366.88
2023-03-22T08:50:58.417Z,1350.00
2023-03-22T08:51:58.435Z,1456.88
2023-03-22T08:52:58.369Z,787.50
2023-03-22T08:53:58.378Z,894.38
2023-03-22T08:54:58.355Z,978.75
2023-03-22T08:55:58.343Z,1321.88
2023-03-22T08:56:58.342Z,1276.88
2023-03-22T08:57:58.286Z,1226.25
2023-03-22T08:58:58.270Z,1681.88
2023-03-22T08:59:58.332Z,1833.75
2023-03-22T09:00:58.475Z,1923.75
2023-03-22T09:01:58.489Z,1496.25
2023-03-22T09:02:58.230Z,1518.75
2023-03-22T09:03:58.322Z,871.88
2023-03-22T09:04:58.210Z,1074.38
2023-03-22T09:05:58.238Z,855.00
2023-03-22T09:06:58.255Z,731.25
2023-03-22T09:08:05.851Z,776.25
2023-03-22T09:08:58.179Z,601.88
2023-03-22T09:09:58.182Z,534.38
2023-03-22T09:10:58.171Z,421.88
2023-03-22T09:11:58.164Z,376.88
2023-03-22T09:12:58.135Z,405.00
2023-03-22T09:13:58.140Z,506.25
2023-03-22T09:14:58.095Z,444.38
2023-03-22T09:15:58.146Z,511.88
2023-03-22T09:16:58.083Z,506.25
2023-03-22T09:17:58.076Z,416.25
2023-03-22T09:18:58.102Z,360.00
2023-03-22T09:20:11.586Z,365.62
2023-03-22T09:20:58.072Z,849.38
2023-03-22T09:21:58.053Z,455.62
2023-03-22T09:22:58.033Z,365.62
2023-03-22T09:23:58.001Z,371.25
2023-03-22T09:24:58.226Z,371.25
2023-03-22T09:25:58.024Z,1012.50
2023-03-22T09:26:57.961Z,528.75
2023-03-22T09:27:58.087Z,646.88
2023-03-22T09:28:58.038Z,1423.12
2023-03-22T09:29:57.952Z,1203.75
2023-03-22T09:30:57.939Z,607.50
2023-03-22T09:31:57.918Z,579.38
2023-03-22T09:32:57.944Z,1119.38
2023-03-22T09:33:57.908Z,675.00
2023-03-22T09:34:57.881Z,410.62
2023-03-22T09:35:57.960Z,540.00
2023-03-22T09:36:58.622Z,810.00
2023-03-22T09:37:57.840Z,691.88
2023-03-22T09:38:57.844Z,731.25
2023-03-22T09:39:57.839Z,2925.00
2023-03-22T09:40:57.804Z,826.88
2023-03-22T09:41:57.806Z,1260.00
2023-03-22T09:42:57.780Z,511.88
2023-03-22T09:43:57.764Z,416.25
2023-03-22T09:44:57.777Z,382.50
2023-03-22T09:45:57.782Z,450.00
2023-03-22T09:46:57.757Z,568.12
2023-03-22T09:47:57.773Z,798.75
2023-03-22T09:48:57.727Z,703.12
2023-03-22T09:49:57.704Z,618.75
2023-03-22T09:50:57.720Z,686.25
2023-03-22T09:51:57.745Z,573.75
2023-03-22T09:52:57.694Z,826.88
2023-03-22T09:53:57.709Z,635.62
2023-03-22T09:54:57.674Z,388.12
2023-03-22T09:55:57.657Z,326.25
2023-03-22T09:56:57.675Z,309.38
2023-03-22T09:57:57.635Z,298.12
2023-03-22T09:58:57.648Z,331.88
2023-03-22T09:59:57.639Z,388.12
2023-03-22T10:00:57.766Z,483.75
2023-03-22T10:01:57.832Z,410.62
2023-03-22T10:02:57.615Z,483.75
2023-03-22T10:03:57.706Z,551.25
2023-03-22T10:04:57.537Z,618.75
2023-03-22T10:05:57.531Z,2120.62
2023-03-22T10:06:57.539Z,1350.00
2023-03-22T10:07:57.550Z,708.75
2023-03-22T10:08:57.524Z,2373.75
2023-03-22T10:09:57.477Z,708.75
2023-03-22T10:10:57.504Z,748.12
2023-03-22T10:11:57.493Z,680.62
2023-03-22T10:12:57.459Z,736.88
2023-03-22T10:13:57.455Z,1288.12
2023-03-22T10:14:57.458Z,736.88
2023-03-22T10:15:57.513Z,1366.88
2023-03-22T10:16:57.460Z,1231.88
2023-03-22T10:17:57.389Z,2520.00
2023-03-22T10:18:57.417Z,2576.25
2023-03-22T10:19:57.639Z,2666.25
2023-03-22T10:20:57.451Z,697.50
2023-03-22T10:21:57.372Z,635.62
2023-03-22T10:22:57.354Z,708.75
2023-03-22T10:23:57.380Z,2165.62
2023-03-22T10:24:57.367Z,877.50
2023-03-22T10:25:57.299Z,832.50
2023-03-22T10:26:57.542Z,2311.88
2023-03-22T10:27:57.997Z,2238.75
2023-03-22T10:28:57.413Z,714.38
2023-03-22T10:29:57.276Z,703.12
2023-03-22T10:30:57.263Z,680.62
2023-03-22T10:31:57.320Z,607.50
2023-03-22T10:32:58.311Z,720.00
2023-03-22T10:33:57.269Z,804.38
2023-03-22T10:34:57.228Z,843.75
2023-03-22T10:35:57.256Z,607.50
2023-03-22T10:36:57.177Z,1378.12
2023-03-22T10:37:57.354Z,624.38
2023-03-22T10:38:57.200Z,1468.12
2023-03-22T10:39:57.201Z,675.00
2023-03-22T10:40:57.165Z,630.00
2023-03-22T10:41:58.177Z,1760.62
2023-03-22T10:42:57.222Z,540.00
2023-03-22T10:43:57.155Z,489.38
2023-03-22T10:44:57.118Z,421.88
2023-03-22T10:45:57.085Z,399.38
2023-03-22T10:46:57.126Z,399.38
2023-03-22T10:48:04.857Z,427.50
2023-03-22T10:48:57.100Z,472.50
2023-03-22T10:49:57.139Z,652.50
2023-03-22T10:50:57.022Z,466.88
2023-03-22T10:51:57.012Z,455.62
2023-03-22T10:52:57.010Z,433.12
2023-03-22T10:53:56.995Z,455.62
2023-03-22T10:55:00.808Z,511.88
2023-03-22T10:55:56.975Z,528.75
2023-03-22T10:56:56.980Z,540.00
2023-03-22T10:57:56.938Z,646.88
2023-03-22T10:58:56.959Z,1018.12
2023-03-22T10:59:56.919Z,556.88
2023-03-22T11:00:57.199Z,517.50
2023-03-22T11:01:57.193Z,663.75
2023-03-22T11:02:56.993Z,1170.00
2023-03-22T11:03:57.027Z,956.25
2023-03-22T11:04:56.885Z,573.75
2023-03-22T11:05:56.867Z,506.25
2023-03-22T11:06:56.857Z,680.62
2023-03-22T11:07:56.834Z,585.00
2023-03-22T11:08:56.842Z,545.62
2023-03-22T11:09:56.808Z,618.75
2023-03-22T11:10:56.877Z,1659.38
2023-03-22T11:11:56.814Z,978.75
2023-03-22T11:12:56.823Z,691.88
2023-03-22T11:13:56.770Z,815.62
2023-03-22T11:14:56.815Z,1153.12
2023-03-22T11:15:56.786Z,1383.75
2023-03-22T11:16:57.437Z,1535.62
2023-03-22T11:17:56.751Z,905.62
2023-03-22T11:18:56.710Z,675.00
2023-03-22T11:19:56.750Z,675.00
2023-03-22T11:20:56.708Z,945.00
2023-03-22T11:21:56.745Z,838.12
2023-03-22T11:22:56.666Z,736.88
2023-03-22T11:23:56.772Z,731.25
2023-03-22T11:24:56.681Z,950.62
2023-03-22T11:25:56.644Z,691.88
2023-03-22T11:26:56.617Z,613.12
2023-03-22T11:27:56.608Z,618.75
2023-03-22T11:28:56.715Z,573.75
2023-03-22T11:29:56.607Z,511.88
2023-03-22T11:30:56.613Z,483.75
2023-03-22T11:31:56.590Z,489.38
2023-03-22T11:32:56.630Z,815.62
2023-03-22T11:33:56.730Z,556.88
2023-03-22T11:34:56.574Z,399.38
2023-03-22T11:35:56.795Z,360.00
2023-03-22T11:36:56.566Z,416.25
2023-03-22T11:37:56.506Z,675.00
2023-03-22T11:38:56.519Z,472.50
2023-03-22T11:39:56.479Z,416.25
2023-03-22T11:40:56.468Z,360.00
2023-03-22T11:41:56.910Z,376.88
2023-03-22T11:42:56.440Z,320.62
2023-03-22T11:43:56.512Z,315.00
2023-03-22T11:44:56.437Z,320.62
2023-03-22T11:45:56.475Z,337.50
2023-03-22T11:46:56.678Z,376.88
2023-03-22T11:47:56.444Z,399.38
2023-03-22T11:48:57.330Z,399.38
2023-03-22T11:49:56.359Z,382.50
2023-03-22T11:50:56.366Z,371.25
2023-03-22T11:51:56.376Z,354.38
2023-03-22T11:52:56.329Z,348.75
2023-03-22T11:53:56.313Z,365.62
2023-03-22T11:54:56.411Z,405.00
2023-03-22T11:55:56.307Z,410.62
2023-03-22T11:56:56.338Z,545.62
2023-03-22T11:57:56.269Z,517.50
2023-03-22T11:58:56.829Z,433.12
2023-03-22T11:59:56.263Z,461.25
2023-03-22T12:00:56.252Z,725.62
2023-03-22T12:01:56.236Z,506.25
2023-03-22T12:02:56.422Z,500.62
2023-03-22T12:03:56.405Z,641.25
2023-03-22T12:04:56.270Z,708.75
2023-03-22T12:05:56.236Z,613.12
2023-03-22T12:06:56.188Z,759.38
2023-03-22T12:07:56.196Z,691.88
2023-03-22T12:08:56.501Z,804.38
2023-03-22T12:09:57.514Z,1035.00
2023-03-22T12:10:56.140Z,1035.00
2023-03-22T12:11:56.119Z,1192.50
2023-03-22T12:12:56.126Z,1147.50
2023-03-22T12:13:56.111Z,956.25
2023-03-22T12:14:56.121Z,888.75
2023-03-22T12:15:56.091Z,1248.75
2023-03-22T12:16:56.071Z,967.50
2023-03-22T12:17:56.191Z,961.88
2023-03-22T12:18:56.072Z,1192.50
2023-03-22T12:19:56.099Z,1102.50
2023-03-22T12:20:57.312Z,810.00
2023-03-22T12:21:56.016Z,973.12
2023-03-22T12:22:56.240Z,1001.25
2023-03-22T12:23:56.094Z,843.75
2023-03-22T12:24:55.979Z,911.25
2023-03-22T12:25:56.000Z,843.75
2023-03-22T12:26:55.962Z,725.62
2023-03-22T12:27:55.971Z,607.50
2023-03-22T12:28:56.022Z,556.88
2023-03-22T12:29:55.917Z,523.12
2023-03-22T12:30:55.980Z,478.12
2023-03-22T12:31:56.063Z,450.00
2023-03-22T12:32:55.962Z,438.75
2023-03-22T12:33:56.021Z,455.62
2023-03-22T12:35:05.439Z,461.25
2023-03-22T12:35:56.895Z,444.38
2023-03-22T12:36:55.848Z,405.00
2023-03-22T12:37:55.999Z,382.50
2023-03-22T12:38:55.839Z,360.00
2023-03-22T12:39:55.816Z,337.50
2023-03-22T12:40:55.816Z,331.88
2023-03-22T12:41:56.438Z,331.88
2023-03-22T12:42:58.944Z,320.62
2023-03-22T12:43:55.760Z,320.62
2023-03-22T12:45:04.738Z,315.00
2023-03-22T12:45:55.766Z,315.00
2023-03-22T12:46:55.783Z,303.75
2023-03-22T12:47:55.854Z,309.38